sensor_id;sensor_type;location;lat;lon;timestamp;P1;durP1;ratioP1;P2;durP2;ratioP2
73852;SDS011;62191;51.548;5.688;2023-07-13T00:00:30;2.37;;;0.90;;
73852;SDS011;62191;51.548;5.688;2023-07-13T00:02:58;1.45;;;0.98;;
73852;SDS011;62191;51.548;5.688;2023-07-13T00:05:26;1.65;;;1.20;;
73852;SDS011;62191;51.548;5.688;2023-07-13T00:07:56;2.80;;;1.30;;
73852;SDS011;62191;51.548;5.688;2023-07-13T00:10:23;1.10;;;1.00;;
73852;SDS011;62191;51.548;5.688;2023-07-13T00:12:52;0.90;;;0.80;;
73852;SDS011;62191;51.548;5.688;2023-07-13T00:15:22;2.33;;;1.45;;
73852;SDS011;62191;51.548;5.688;2023-07-13T00:17:51;2.85;;;1.10;;
73852;SDS011;62191;51.548;5.688;2023-07-13T00:20:21;1.55;;;1.10;;
73852;SDS011;62191;51.548;5.688;2023-07-13T00:22:51;1.52;;;1.15;;
73852;SDS011;62191;51.548;5.688;2023-07-13T00:25:20;1.70;;;1.15;;
73852;SDS011;62191;51.548;5.688;2023-07-13T00:27:49;2.62;;;1.90;;
73852;SDS011;62191;51.548;5.688;2023-07-13T00:30:17;2.45;;;1.10;;
73852;SDS011;62191;51.548;5.688;2023-07-13T00:32:45;1.67;;;1.17;;
73852;SDS011;62191;51.548;5.688;2023-07-13T00:35:14;2.45;;;1.35;;
73852;SDS011;62191;51.548;5.688;2023-07-13T00:37:42;2.15;;;1.15;;
73852;SDS011;62191;51.548;5.688;2023-07-13T00:40:10;1.15;;;1.05;;
73852;SDS011;62191;51.548;5.688;2023-07-13T00:42:39;1.98;;;1.40;;
73852;SDS011;62191;51.548;5.688;2023-07-13T00:47:42;2.75;;;1.52;;
73852;SDS011;62191;51.548;5.688;2023-07-13T00:50:12;5.28;;;1.70;;
73852;SDS011;62191;51.548;5.688;2023-07-13T00:52:41;2.05;;;1.37;;
73852;SDS011;62191;51.548;5.688;2023-07-13T00:55:11;2.65;;;1.32;;
73852;SDS011;62191;51.548;5.688;2023-07-13T00:57:39;3.12;;;1.40;;
73852;SDS011;62191;51.548;5.688;2023-07-13T01:00:08;1.12;;;1.02;;
73852;SDS011;62191;51.548;5.688;2023-07-13T01:02:38;1.45;;;1.22;;
73852;SDS011;62191;51.548;5.688;2023-07-13T01:05:10;6.10;;;1.67;;
73852;SDS011;62191;51.548;5.688;2023-07-13T01:07:43;1.87;;;1.30;;
73852;SDS011;62191;51.548;5.688;2023-07-13T01:10:11;3.33;;;1.60;;
73852;SDS011;62191;51.548;5.688;2023-07-13T01:12:39;1.87;;;1.50;;
73852;SDS011;62191;51.548;5.688;2023-07-13T01:18:08;9.13;;;1.85;;
73852;SDS011;62191;51.548;5.688;2023-07-13T01:20:36;4.30;;;1.32;;
73852;SDS011;62191;51.548;5.688;2023-07-13T01:23:07;3.37;;;1.52;;
73852;SDS011;62191;51.548;5.688;2023-07-13T01:25:36;1.05;;;0.98;;
73852;SDS011;62191;51.548;5.688;2023-07-13T01:28:05;1.85;;;1.05;;
73852;SDS011;62191;51.548;5.688;2023-07-13T01:30:35;2.42;;;1.40;;
73852;SDS011;62191;51.548;5.688;2023-07-13T01:33:08;2.17;;;1.37;;
73852;SDS011;62191;51.548;5.688;2023-07-13T01:35:35;3.02;;;1.25;;
73852;SDS011;62191;51.548;5.688;2023-07-13T01:38:04;3.85;;;1.50;;
73852;SDS011;62191;51.548;5.688;2023-07-13T01:40:33;6.78;;;1.50;;
73852;SDS011;62191;51.548;5.688;2023-07-13T01:43:02;2.40;;;1.30;;
73852;SDS011;62191;51.548;5.688;2023-07-13T01:45:29;3.67;;;1.55;;
73852;SDS011;62191;51.548;5.688;2023-07-13T01:47:57;1.47;;;1.37;;
73852;SDS011;62191;51.548;5.688;2023-07-13T01:50:25;5.62;;;1.55;;
73852;SDS011;62191;51.548;5.688;2023-07-13T01:52:52;2.62;;;1.50;;
73852;SDS011;62191;51.548;5.688;2023-07-13T01:55:20;1.90;;;1.35;;
73852;SDS011;62191;51.548;5.688;2023-07-13T01:57:50;2.37;;;1.37;;
73852;SDS011;62191;51.548;5.688;2023-07-13T02:00:17;2.65;;;1.27;;
73852;SDS011;62191;51.548;5.688;2023-07-13T02:02:46;3.10;;;1.92;;
73852;SDS011;62191;51.548;5.688;2023-07-13T02:05:15;2.85;;;1.50;;
73852;SDS011;62191;51.548;5.688;2023-07-13T02:07:42;3.30;;;1.12;;
73852;SDS011;62191;51.548;5.688;2023-07-13T02:10:10;2.90;;;1.22;;
73852;SDS011;62191;51.548;5.688;2023-07-13T02:12:38;2.42;;;1.67;;
73852;SDS011;62191;51.548;5.688;2023-07-13T02:15:06;1.85;;;1.40;;
73852;SDS011;62191;51.548;5.688;2023-07-13T02:17:35;2.30;;;1.07;;
73852;SDS011;62191;51.548;5.688;2023-07-13T02:20:05;2.67;;;1.30;;
73852;SDS011;62191;51.548;5.688;2023-07-13T02:22:36;3.17;;;1.32;;
73852;SDS011;62191;51.548;5.688;2023-07-13T02:25:06;3.25;;;1.45;;
73852;SDS011;62191;51.548;5.688;2023-07-13T02:27:35;2.85;;;1.45;;
73852;SDS011;62191;51.548;5.688;2023-07-13T02:30:02;1.30;;;1.20;;
73852;SDS011;62191;51.548;5.688;2023-07-13T02:32:32;2.25;;;1.37;;
73852;SDS011;62191;51.548;5.688;2023-07-13T02:35:00;1.52;;;0.95;;
73852;SDS011;62191;51.548;5.688;2023-07-13T02:37:30;1.87;;;1.05;;
73852;SDS011;62191;51.548;5.688;2023-07-13T02:39:57;2.40;;;1.37;;
73852;SDS011;62191;51.548;5.688;2023-07-13T02:42:24;2.33;;;1.07;;
73852;SDS011;62191;51.548;5.688;2023-07-13T02:44:52;2.90;;;1.40;;
73852;SDS011;62191;51.548;5.688;2023-07-13T02:47:23;3.90;;;1.20;;
73852;SDS011;62191;51.548;5.688;2023-07-13T02:49:50;4.72;;;1.37;;
73852;SDS011;62191;51.548;5.688;2023-07-13T02:52:17;3.45;;;1.40;;
73852;SDS011;62191;51.548;5.688;2023-07-13T02:54:47;1.80;;;1.17;;
73852;SDS011;62191;51.548;5.688;2023-07-13T02:57:15;2.58;;;1.27;;
73852;SDS011;62191;51.548;5.688;2023-07-13T02:59:44;2.02;;;1.50;;
73852;SDS011;62191;51.548;5.688;2023-07-13T03:02:15;2.83;;;1.42;;
73852;SDS011;62191;51.548;5.688;2023-07-13T03:04:43;4.35;;;1.47;;
73852;SDS011;62191;51.548;5.688;2023-07-13T03:07:12;4.60;;;1.60;;
73852;SDS011;62191;51.548;5.688;2023-07-13T03:09:39;3.20;;;1.72;;
73852;SDS011;62191;51.548;5.688;2023-07-13T03:12:07;2.75;;;1.60;;
73852;SDS011;62191;51.548;5.688;2023-07-13T03:14:34;3.65;;;1.98;;
73852;SDS011;62191;51.548;5.688;2023-07-13T03:17:05;4.72;;;2.25;;
73852;SDS011;62191;51.548;5.688;2023-07-13T03:19:32;2.52;;;1.85;;
73852;SDS011;62191;51.548;5.688;2023-07-13T03:22:02;3.35;;;1.57;;
73852;SDS011;62191;51.548;5.688;2023-07-13T03:24:31;3.42;;;1.67;;
73852;SDS011;62191;51.548;5.688;2023-07-13T03:27:03;2.47;;;1.25;;
73852;SDS011;62191;51.548;5.688;2023-07-13T03:29:32;2.75;;;1.52;;
73852;SDS011;62191;51.548;5.688;2023-07-13T03:32:01;2.92;;;1.85;;
73852;SDS011;62191;51.548;5.688;2023-07-13T03:34:31;2.17;;;1.52;;
73852;SDS011;62191;51.548;5.688;2023-07-13T03:36:59;2.92;;;1.62;;
73852;SDS011;62191;51.548;5.688;2023-07-13T03:39:28;4.10;;;1.95;;
73852;SDS011;62191;51.548;5.688;2023-07-13T03:41:55;2.42;;;1.62;;
73852;SDS011;62191;51.548;5.688;2023-07-13T03:44:23;7.05;;;1.50;;
73852;SDS011;62191;51.548;5.688;2023-07-13T03:46:50;2.27;;;1.60;;
73852;SDS011;62191;51.548;5.688;2023-07-13T03:49:19;5.65;;;2.05;;
73852;SDS011;62191;51.548;5.688;2023-07-13T03:51:46;3.30;;;1.57;;
73852;SDS011;62191;51.548;5.688;2023-07-13T03:54:17;2.35;;;1.60;;
73852;SDS011;62191;51.548;5.688;2023-07-13T03:56:44;3.12;;;1.80;;
73852;SDS011;62191;51.548;5.688;2023-07-13T03:59:11;1.95;;;1.30;;
73852;SDS011;62191;51.548;5.688;2023-07-13T04:01:39;3.08;;;2.25;;
73852;SDS011;62191;51.548;5.688;2023-07-13T04:04:06;3.12;;;1.87;;
73852;SDS011;62191;51.548;5.688;2023-07-13T04:06:35;5.53;;;1.90;;
73852;SDS011;62191;51.548;5.688;2023-07-13T04:09:02;3.08;;;1.65;;
73852;SDS011;62191;51.548;5.688;2023-07-13T04:11:34;2.50;;;1.35;;
73852;SDS011;62191;51.548;5.688;2023-07-13T04:14:05;4.37;;;1.98;;
73852;SDS011;62191;51.548;5.688;2023-07-13T04:16:33;2.58;;;2.00;;
73852;SDS011;62191;51.548;5.688;2023-07-13T04:19:03;3.33;;;2.12;;
73852;SDS011;62191;51.548;5.688;2023-07-13T04:21:30;5.30;;;2.00;;
73852;SDS011;62191;51.548;5.688;2023-07-13T04:23:58;3.05;;;1.52;;
73852;SDS011;62191;51.548;5.688;2023-07-13T04:26:26;8.93;;;1.95;;
73852;SDS011;62191;51.548;5.688;2023-07-13T04:28:53;4.47;;;2.25;;
73852;SDS011;62191;51.548;5.688;2023-07-13T04:31:20;3.45;;;1.87;;
73852;SDS011;62191;51.548;5.688;2023-07-13T04:33:48;2.92;;;1.60;;
73852;SDS011;62191;51.548;5.688;2023-07-13T04:36:17;3.65;;;1.60;;
73852;SDS011;62191;51.548;5.688;2023-07-13T04:38:44;2.52;;;1.50;;
73852;SDS011;62191;51.548;5.688;2023-07-13T04:41:12;12.93;;;2.35;;
73852;SDS011;62191;51.548;5.688;2023-07-13T04:43:41;2.98;;;2.05;;
73852;SDS011;62191;51.548;5.688;2023-07-13T04:46:11;3.87;;;1.57;;
73852;SDS011;62191;51.548;5.688;2023-07-13T04:48:41;3.52;;;1.98;;
73852;SDS011;62191;51.548;5.688;2023-07-13T04:51:08;4.08;;;2.35;;
73852;SDS011;62191;51.548;5.688;2023-07-13T04:53:37;2.80;;;1.82;;
73852;SDS011;62191;51.548;5.688;2023-07-13T04:56:07;5.37;;;2.55;;
73852;SDS011;62191;51.548;5.688;2023-07-13T04:58:34;4.47;;;3.05;;
73852;SDS011;62191;51.548;5.688;2023-07-13T05:01:02;4.17;;;2.83;;
73852;SDS011;62191;51.548;5.688;2023-07-13T05:03:30;5.53;;;3.50;;
73852;SDS011;62191;51.548;5.688;2023-07-13T05:05:59;5.37;;;3.05;;
73852;SDS011;62191;51.548;5.688;2023-07-13T05:08:28;4.22;;;3.05;;
73852;SDS011;62191;51.548;5.688;2023-07-13T05:10:56;13.53;;;4.35;;
73852;SDS011;62191;51.548;5.688;2023-07-13T05:13:26;4.25;;;3.45;;
73852;SDS011;62191;51.548;5.688;2023-07-13T05:16:01;5.17;;;3.10;;
73852;SDS011;62191;51.548;5.688;2023-07-13T05:18:30;6.05;;;3.70;;
73852;SDS011;62191;51.548;5.688;2023-07-13T05:20:58;7.83;;;3.67;;
73852;SDS011;62191;51.548;5.688;2023-07-13T05:23:27;7.35;;;4.08;;
73852;SDS011;62191;51.548;5.688;2023-07-13T05:25:55;6.33;;;4.65;;
73852;SDS011;62191;51.548;5.688;2023-07-13T05:28:23;6.35;;;4.00;;
73852;SDS011;62191;51.548;5.688;2023-07-13T05:30:51;10.23;;;4.87;;
73852;SDS011;62191;51.548;5.688;2023-07-13T05:33:19;10.35;;;5.50;;
73852;SDS011;62191;51.548;5.688;2023-07-13T05:35:47;9.95;;;5.10;;
73852;SDS011;62191;51.548;5.688;2023-07-13T05:38:16;10.90;;;5.22;;
73852;SDS011;62191;51.548;5.688;2023-07-13T05:40:46;7.85;;;4.80;;
73852;SDS011;62191;51.548;5.688;2023-07-13T05:43:15;6.97;;;4.72;;
73852;SDS011;62191;51.548;5.688;2023-07-13T05:45:43;8.13;;;4.65;;
73852;SDS011;62191;51.548;5.688;2023-07-13T05:48:10;8.43;;;5.12;;
73852;SDS011;62191;51.548;5.688;2023-07-13T05:50:40;15.30;;;4.97;;
73852;SDS011;62191;51.548;5.688;2023-07-13T05:53:08;10.70;;;5.05;;
73852;SDS011;62191;51.548;5.688;2023-07-13T05:55:40;9.70;;;5.47;;
73852;SDS011;62191;51.548;5.688;2023-07-13T05:58:20;10.95;;;5.10;;
73852;SDS011;62191;51.548;5.688;2023-07-13T06:00:48;6.65;;;4.05;;
73852;SDS011;62191;51.548;5.688;2023-07-13T06:03:17;9.98;;;4.87;;
73852;SDS011;62191;51.548;5.688;2023-07-13T06:05:45;7.78;;;4.17;;
73852;SDS011;62191;51.548;5.688;2023-07-13T06:08:12;5.28;;;3.95;;
73852;SDS011;62191;51.548;5.688;2023-07-13T06:10:40;33.40;;;5.47;;
73852;SDS011;62191;51.548;5.688;2023-07-13T06:13:07;10.13;;;4.87;;
73852;SDS011;62191;51.548;5.688;2023-07-13T06:15:34;9.25;;;4.70;;
73852;SDS011;62191;51.548;5.688;2023-07-13T06:18:02;17.05;;;4.92;;
73852;SDS011;62191;51.548;5.688;2023-07-13T06:20:29;5.33;;;4.05;;
73852;SDS011;62191;51.548;5.688;2023-07-13T06:22:57;7.87;;;4.35;;
73852;SDS011;62191;51.548;5.688;2023-07-13T06:25:24;7.62;;;4.30;;
73852;SDS011;62191;51.548;5.688;2023-07-13T06:27:53;7.35;;;4.08;;
73852;SDS011;62191;51.548;5.688;2023-07-13T06:30:20;9.20;;;4.47;;
73852;SDS011;62191;51.548;5.688;2023-07-13T06:32:49;9.08;;;4.90;;
73852;SDS011;62191;51.548;5.688;2023-07-13T06:35:16;4.35;;;3.47;;
73852;SDS011;62191;51.548;5.688;2023-07-13T06:37:44;7.95;;;4.55;;
73852;SDS011;62191;51.548;5.688;2023-07-13T06:40:12;7.40;;;4.58;;
73852;SDS011;62191;51.548;5.688;2023-07-13T06:42:40;5.83;;;4.33;;
73852;SDS011;62191;51.548;5.688;2023-07-13T06:45:07;6.92;;;4.67;;
73852;SDS011;62191;51.548;5.688;2023-07-13T06:47:35;9.00;;;4.87;;
73852;SDS011;62191;51.548;5.688;2023-07-13T06:50:03;6.30;;;5.12;;
73852;SDS011;62191;51.548;5.688;2023-07-13T06:52:30;6.55;;;5.30;;
73852;SDS011;62191;51.548;5.688;2023-07-13T06:54:57;10.95;;;5.35;;
73852;SDS011;62191;51.548;5.688;2023-07-13T06:57:25;6.05;;;4.40;;
73852;SDS011;62191;51.548;5.688;2023-07-13T06:59:53;11.18;;;4.40;;
73852;SDS011;62191;51.548;5.688;2023-07-13T07:02:20;7.62;;;4.85;;
73852;SDS011;62191;51.548;5.688;2023-07-13T07:04:48;6.03;;;4.33;;
73852;SDS011;62191;51.548;5.688;2023-07-13T07:07:15;10.15;;;4.97;;
73852;SDS011;62191;51.548;5.688;2023-07-13T07:09:43;5.67;;;4.25;;
73852;SDS011;62191;51.548;5.688;2023-07-13T07:12:10;8.65;;;4.70;;
73852;SDS011;62191;51.548;5.688;2023-07-13T07:14:37;7.75;;;5.20;;
73852;SDS011;62191;51.548;5.688;2023-07-13T07:17:05;6.12;;;4.45;;
73852;SDS011;62191;51.548;5.688;2023-07-13T07:19:32;8.15;;;5.37;;
73852;SDS011;62191;51.548;5.688;2023-07-13T07:22:00;6.62;;;4.58;;
73852;SDS011;62191;51.548;5.688;2023-07-13T07:24:27;9.48;;;5.12;;
73852;SDS011;62191;51.548;5.688;2023-07-13T07:26:54;10.68;;;4.92;;
73852;SDS011;62191;51.548;5.688;2023-07-13T07:29:22;19.67;;;4.85;;
73852;SDS011;62191;51.548;5.688;2023-07-13T07:31:51;5.75;;;4.33;;
73852;SDS011;62191;51.548;5.688;2023-07-13T07:34:18;5.03;;;4.35;;
73852;SDS011;62191;51.548;5.688;2023-07-13T07:36:46;12.63;;;5.17;;
73852;SDS011;62191;51.548;5.688;2023-07-13T07:39:13;4.92;;;4.40;;
73852;SDS011;62191;51.548;5.688;2023-07-13T07:41:41;5.45;;;4.28;;
73852;SDS011;62191;51.548;5.688;2023-07-13T07:44:09;8.58;;;4.70;;
73852;SDS011;62191;51.548;5.688;2023-07-13T07:46:36;11.22;;;4.95;;
73852;SDS011;62191;51.548;5.688;2023-07-13T07:49:03;8.20;;;4.80;;
73852;SDS011;62191;51.548;5.688;2023-07-13T07:51:31;8.55;;;4.78;;
73852;SDS011;62191;51.548;5.688;2023-07-13T07:53:58;7.60;;;4.40;;
73852;SDS011;62191;51.548;5.688;2023-07-13T07:56:26;10.72;;;4.40;;
73852;SDS011;62191;51.548;5.688;2023-07-13T07:58:53;6.08;;;3.90;;
73852;SDS011;62191;51.548;5.688;2023-07-13T08:01:21;6.85;;;4.67;;
73852;SDS011;62191;51.548;5.688;2023-07-13T08:03:49;7.12;;;4.35;;
73852;SDS011;62191;51.548;5.688;2023-07-13T08:06:16;6.28;;;4.30;;
73852;SDS011;62191;51.548;5.688;2023-07-13T08:08:45;10.80;;;5.10;;
73852;SDS011;62191;51.548;5.688;2023-07-13T08:13:41;8.93;;;4.15;;
73852;SDS011;62191;51.548;5.688;2023-07-13T08:16:08;6.97;;;3.98;;
73852;SDS011;62191;51.548;5.688;2023-07-13T08:18:37;5.70;;;3.35;;
73852;SDS011;62191;51.548;5.688;2023-07-13T08:21:05;7.05;;;4.30;;
73852;SDS011;62191;51.548;5.688;2023-07-13T08:23:33;6.92;;;4.03;;
73852;SDS011;62191;51.548;5.688;2023-07-13T08:26:02;10.05;;;4.90;;
73852;SDS011;62191;51.548;5.688;2023-07-13T08:28:29;5.85;;;3.20;;
73852;SDS011;62191;51.548;5.688;2023-07-13T08:31:02;6.22;;;3.62;;
73852;SDS011;62191;51.548;5.688;2023-07-13T08:33:30;7.30;;;3.77;;
73852;SDS011;62191;51.548;5.688;2023-07-13T08:35:57;6.20;;;3.58;;
73852;SDS011;62191;51.548;5.688;2023-07-13T08:38:24;5.55;;;3.15;;
73852;SDS011;62191;51.548;5.688;2023-07-13T08:40:53;3.90;;;2.55;;
73852;SDS011;62191;51.548;5.688;2023-07-13T08:43:45;4.70;;;2.58;;
73852;SDS011;62191;51.548;5.688;2023-07-13T08:46:03;5.85;;;2.90;;
73852;SDS011;62191;51.548;5.688;2023-07-13T08:48:35;9.10;;;3.10;;
73852;SDS011;62191;51.548;5.688;2023-07-13T08:51:15;4.55;;;2.55;;
73852;SDS011;62191;51.548;5.688;2023-07-13T08:53:43;4.55;;;2.50;;
73852;SDS011;62191;51.548;5.688;2023-07-13T08:56:15;3.35;;;2.12;;
73852;SDS011;62191;51.548;5.688;2023-07-13T08:58:44;8.68;;;2.67;;
73852;SDS011;62191;51.548;5.688;2023-07-13T09:01:15;5.45;;;2.60;;
73852;SDS011;62191;51.548;5.688;2023-07-13T09:03:47;4.03;;;2.33;;
73852;SDS011;62191;51.548;5.688;2023-07-13T09:06:31;4.37;;;2.40;;
73852;SDS011;62191;51.548;5.688;2023-07-13T09:09:15;4.15;;;2.02;;
73852;SDS011;62191;51.548;5.688;2023-07-13T09:11:45;3.80;;;2.47;;
73852;SDS011;62191;51.548;5.688;2023-07-13T09:14:29;2.42;;;1.70;;
73852;SDS011;62191;51.548;5.688;2023-07-13T09:17:11;4.72;;;1.87;;
73852;SDS011;62191;51.548;5.688;2023-07-13T09:19:38;2.25;;;2.00;;
73852;SDS011;62191;51.548;5.688;2023-07-13T09:22:10;3.30;;;2.10;;
73852;SDS011;62191;51.548;5.688;2023-07-13T09:24:38;3.60;;;2.12;;
73852;SDS011;62191;51.548;5.688;2023-07-13T09:27:15;5.35;;;1.72;;
73852;SDS011;62191;51.548;5.688;2023-07-13T09:30:22;2.95;;;1.95;;
73852;SDS011;62191;51.548;5.688;2023-07-13T09:32:47;10.65;;;1.95;;
73852;SDS011;62191;51.548;5.688;2023-07-13T09:35:12;8.50;;;1.98;;
73852;SDS011;62191;51.548;5.688;2023-07-13T09:37:42;2.70;;;1.50;;
73852;SDS011;62191;51.548;5.688;2023-07-13T09:40:17;3.12;;;1.72;;
73852;SDS011;62191;51.548;5.688;2023-07-13T09:42:42;4.00;;;1.95;;
73852;SDS011;62191;51.548;5.688;2023-07-13T09:45:09;6.67;;;1.80;;
73852;SDS011;62191;51.548;5.688;2023-07-13T09:47:39;18.73;;;2.20;;
73852;SDS011;62191;51.548;5.688;2023-07-13T09:50:16;2.77;;;1.52;;
73852;SDS011;62191;51.548;5.688;2023-07-13T09:52:44;5.65;;;2.15;;
73852;SDS011;62191;51.548;5.688;2023-07-13T09:58:04;4.10;;;2.25;;
73852;SDS011;62191;51.548;5.688;2023-07-13T10:00:41;4.03;;;1.85;;
73852;SDS011;62191;51.548;5.688;2023-07-13T10:05:37;2.45;;;1.65;;
73852;SDS011;62191;51.548;5.688;2023-07-13T10:08:28;3.50;;;1.82;;
73852;SDS011;62191;51.548;5.688;2023-07-13T10:13:50;3.95;;;1.50;;
73852;SDS011;62191;51.548;5.688;2023-07-13T10:16:19;3.47;;;1.70;;
73852;SDS011;62191;51.548;5.688;2023-07-13T10:21:19;8.38;;;1.50;;
73852;SDS011;62191;51.548;5.688;2023-07-13T10:23:56;4.42;;;1.32;;
73852;SDS011;62191;51.548;5.688;2023-07-13T10:26:22;5.70;;;1.60;;
73852;SDS011;62191;51.548;5.688;2023-07-13T10:28:54;4.97;;;1.35;;
73852;SDS011;62191;51.548;5.688;2023-07-13T10:31:23;3.17;;;1.45;;
73852;SDS011;62191;51.548;5.688;2023-07-13T10:33:50;1.75;;;1.20;;
73852;SDS011;62191;51.548;5.688;2023-07-13T10:36:40;2.37;;;1.15;;
73852;SDS011;62191;51.548;5.688;2023-07-13T10:38:51;5.22;;;1.45;;
73852;SDS011;62191;51.548;5.688;2023-07-13T10:41:21;1.50;;;1.20;;
73852;SDS011;62191;51.548;5.688;2023-07-13T10:43:55;2.15;;;1.30;;
73852;SDS011;62191;51.548;5.688;2023-07-13T10:46:20;1.22;;;0.93;;
73852;SDS011;62191;51.548;5.688;2023-07-13T10:48:50;1.57;;;1.15;;
73852;SDS011;62191;51.548;5.688;2023-07-13T10:51:19;3.98;;;1.40;;
73852;SDS011;62191;51.548;5.688;2023-07-13T10:54:10;1.82;;;1.10;;
73852;SDS011;62191;51.548;5.688;2023-07-13T10:56:34;2.60;;;1.30;;
73852;SDS011;62191;51.548;5.688;2023-07-13T10:59:09;1.40;;;1.30;;
73852;SDS011;62191;51.548;5.688;2023-07-13T11:04:19;2.90;;;1.30;;
73852;SDS011;62191;51.548;5.688;2023-07-13T11:06:48;1.30;;;0.93;;
73852;SDS011;62191;51.548;5.688;2023-07-13T11:12:07;2.70;;;1.32;;
73852;SDS011;62191;51.548;5.688;2023-07-13T11:15:00;4.12;;;1.60;;
73852;SDS011;62191;51.548;5.688;2023-07-13T11:23:30;1.92;;;1.60;;
73852;SDS011;62191;51.548;5.688;2023-07-13T11:28:12;5.15;;;2.37;;
73852;SDS011;62191;51.548;5.688;2023-07-13T11:33:22;5.20;;;2.20;;
73852;SDS011;62191;51.548;5.688;2023-07-13T11:38:42;2.98;;;1.75;;
73852;SDS011;62191;51.548;5.688;2023-07-13T11:41:19;2.75;;;2.00;;
73852;SDS011;62191;51.548;5.688;2023-07-13T11:43:53;2.62;;;1.98;;
73852;SDS011;62191;51.548;5.688;2023-07-13T11:46:26;2.40;;;1.98;;
73852;SDS011;62191;51.548;5.688;2023-07-13T11:48:53;2.33;;;2.12;;
73852;SDS011;62191;51.548;5.688;2023-07-13T11:51:26;4.15;;;2.40;;
73852;SDS011;62191;51.548;5.688;2023-07-13T11:54:06;3.85;;;2.20;;
73852;SDS011;62191;51.548;5.688;2023-07-13T11:56:52;2.65;;;2.10;;
73852;SDS011;62191;51.548;5.688;2023-07-13T11:59:32;6.28;;;2.77;;
73852;SDS011;62191;51.548;5.688;2023-07-13T12:01:59;14.15;;;3.33;;
73852;SDS011;62191;51.548;5.688;2023-07-13T12:04:34;4.47;;;2.65;;
73852;SDS011;62191;51.548;5.688;2023-07-13T12:07:22;4.50;;;2.75;;
73852;SDS011;62191;51.548;5.688;2023-07-13T12:09:33;4.28;;;3.15;;
73852;SDS011;62191;51.548;5.688;2023-07-13T12:12:02;6.25;;;3.60;;
73852;SDS011;62191;51.548;5.688;2023-07-13T12:14:29;8.55;;;3.37;;
73852;SDS011;62191;51.548;5.688;2023-07-13T12:16:59;4.85;;;2.92;;
73852;SDS011;62191;51.548;5.688;2023-07-13T12:19:27;5.08;;;3.45;;
73852;SDS011;62191;51.548;5.688;2023-07-13T12:21:58;3.33;;;2.77;;
73852;SDS011;62191;51.548;5.688;2023-07-13T12:24:26;3.50;;;3.15;;
73852;SDS011;62191;51.548;5.688;2023-07-13T12:26:54;8.08;;;2.92;;
73852;SDS011;62191;51.548;5.688;2023-07-13T12:29:32;3.37;;;2.50;;
73852;SDS011;62191;51.548;5.688;2023-07-13T12:31:58;3.75;;;2.42;;
73852;SDS011;62191;51.548;5.688;2023-07-13T12:34:26;2.37;;;2.05;;
73852;SDS011;62191;51.548;5.688;2023-07-13T12:36:54;2.00;;;1.80;;
73852;SDS011;62191;51.548;5.688;2023-07-13T12:42:09;2.47;;;2.22;;
73852;SDS011;62191;51.548;5.688;2023-07-13T12:44:28;2.65;;;2.42;;
73852;SDS011;62191;51.548;5.688;2023-07-13T12:46:58;3.15;;;2.17;;
73852;SDS011;62191;51.548;5.688;2023-07-13T12:49:28;4.08;;;2.52;;
73852;SDS011;62191;51.548;5.688;2023-07-13T12:51:59;2.67;;;2.35;;
73852;SDS011;62191;51.548;5.688;2023-07-13T12:54:29;2.55;;;2.02;;
73852;SDS011;62191;51.548;5.688;2023-07-13T12:56:59;6.40;;;2.50;;
73852;SDS011;62191;51.548;5.688;2023-07-13T12:59:30;3.02;;;1.80;;
73852;SDS011;62191;51.548;5.688;2023-07-13T13:01:59;1.77;;;1.60;;
73852;SDS011;62191;51.548;5.688;2023-07-13T13:04:28;7.30;;;1.90;;
73852;SDS011;62191;51.548;5.688;2023-07-13T13:07:03;2.17;;;1.60;;
73852;SDS011;62191;51.548;5.688;2023-07-13T13:09:32;2.37;;;1.55;;
73852;SDS011;62191;51.548;5.688;2023-07-13T13:11:59;2.05;;;1.80;;
73852;SDS011;62191;51.548;5.688;2023-07-13T13:14:26;5.00;;;1.77;;
73852;SDS011;62191;51.548;5.688;2023-07-13T13:16:54;3.00;;;1.80;;
73852;SDS011;62191;51.548;5.688;2023-07-13T13:19:24;5.17;;;2.05;;
73852;SDS011;62191;51.548;5.688;2023-07-13T13:21:53;4.12;;;2.25;;
73852;SDS011;62191;51.548;5.688;2023-07-13T13:24:23;2.35;;;2.12;;
73852;SDS011;62191;51.548;5.688;2023-07-13T13:26:52;2.67;;;1.82;;
73852;SDS011;62191;51.548;5.688;2023-07-13T13:29:24;1.77;;;1.67;;
73852;SDS011;62191;51.548;5.688;2023-07-13T13:31:51;3.80;;;1.98;;
73852;SDS011;62191;51.548;5.688;2023-07-13T13:34:20;3.62;;;2.00;;
73852;SDS011;62191;51.548;5.688;2023-07-13T13:36:51;1.60;;;1.40;;
73852;SDS011;62191;51.548;5.688;2023-07-13T13:39:20;2.95;;;2.08;;
73852;SDS011;62191;51.548;5.688;2023-07-13T13:41:49;1.85;;;1.42;;
73852;SDS011;62191;51.548;5.688;2023-07-13T13:44:18;3.35;;;1.90;;
73852;SDS011;62191;51.548;5.688;2023-07-13T13:46:47;1.65;;;1.50;;
73852;SDS011;62191;51.548;5.688;2023-07-13T13:49:17;2.80;;;1.62;;
73852;SDS011;62191;51.548;5.688;2023-07-13T13:51:49;3.35;;;1.67;;
73852;SDS011;62191;51.548;5.688;2023-07-13T13:54:17;2.70;;;1.55;;
73852;SDS011;62191;51.548;5.688;2023-07-13T13:56:51;1.55;;;1.45;;
73852;SDS011;62191;51.548;5.688;2023-07-13T13:59:16;4.60;;;1.42;;
73852;SDS011;62191;51.548;5.688;2023-07-13T14:01:44;1.98;;;1.32;;
73852;SDS011;62191;51.548;5.688;2023-07-13T14:04:19;2.83;;;1.85;;
73852;SDS011;62191;51.548;5.688;2023-07-13T14:06:47;2.17;;;1.70;;
73852;SDS011;62191;51.548;5.688;2023-07-13T14:09:16;4.35;;;1.80;;
73852;SDS011;62191;51.548;5.688;2023-07-13T14:11:45;2.47;;;1.90;;
73852;SDS011;62191;51.548;5.688;2023-07-13T14:14:17;3.00;;;2.22;;
73852;SDS011;62191;51.548;5.688;2023-07-13T14:16:47;2.15;;;1.85;;
73852;SDS011;62191;51.548;5.688;2023-07-13T14:19:16;2.65;;;2.22;;
73852;SDS011;62191;51.548;5.688;2023-07-13T14:21:44;2.60;;;1.80;;
73852;SDS011;62191;51.548;5.688;2023-07-13T14:24:13;2.80;;;1.67;;
73852;SDS011;62191;51.548;5.688;2023-07-13T14:26:41;1.80;;;1.57;;
73852;SDS011;62191;51.548;5.688;2023-07-13T14:29:12;2.22;;;1.87;;
73852;SDS011;62191;51.548;5.688;2023-07-13T14:31:43;2.15;;;1.80;;
73852;SDS011;62191;51.548;5.688;2023-07-13T14:34:12;1.95;;;1.70;;
73852;SDS011;62191;51.548;5.688;2023-07-13T14:36:41;2.95;;;1.70;;
73852;SDS011;62191;51.548;5.688;2023-07-13T14:39:20;1.72;;;1.62;;
73852;SDS011;62191;51.548;5.688;2023-07-13T14:41:49;1.85;;;1.52;;
73852;SDS011;62191;51.548;5.688;2023-07-13T14:44:23;2.12;;;1.92;;
73852;SDS011;62191;51.548;5.688;2023-07-13T14:46:51;1.87;;;1.70;;
73852;SDS011;62191;51.548;5.688;2023-07-13T14:49:29;2.02;;;1.57;;
73852;SDS011;62191;51.548;5.688;2023-07-13T14:52:00;2.02;;;1.82;;
73852;SDS011;62191;51.548;5.688;2023-07-13T14:54:29;2.52;;;1.62;;
73852;SDS011;62191;51.548;5.688;2023-07-13T14:56:56;1.60;;;1.50;;
73852;SDS011;62191;51.548;5.688;2023-07-13T14:59:24;1.32;;;1.10;;
73852;SDS011;62191;51.548;5.688;2023-07-13T15:01:51;1.60;;;1.20;;
73852;SDS011;62191;51.548;5.688;2023-07-13T15:04:19;3.10;;;1.35;;
73852;SDS011;62191;51.548;5.688;2023-07-13T15:06:53;1.37;;;1.17;;
73852;SDS011;62191;51.548;5.688;2023-07-13T15:09:25;1.47;;;1.25;;
73852;SDS011;62191;51.548;5.688;2023-07-13T15:11:59;2.55;;;1.00;;
73852;SDS011;62191;51.548;5.688;2023-07-13T15:14:23;1.07;;;0.95;;
73852;SDS011;62191;51.548;5.688;2023-07-13T15:16:53;1.65;;;1.40;;
73852;SDS011;62191;51.548;5.688;2023-07-13T15:19:21;3.72;;;1.40;;
73852;SDS011;62191;51.548;5.688;2023-07-13T15:21:51;1.15;;;1.05;;
73852;SDS011;62191;51.548;5.688;2023-07-13T15:24:20;0.82;;;0.82;;
73852;SDS011;62191;51.548;5.688;2023-07-13T15:26:47;2.10;;;1.30;;
73852;SDS011;62191;51.548;5.688;2023-07-13T15:29:15;2.37;;;1.35;;
73852;SDS011;62191;51.548;5.688;2023-07-13T15:31:43;2.47;;;1.65;;
73852;SDS011;62191;51.548;5.688;2023-07-13T15:34:12;1.07;;;0.98;;
73852;SDS011;62191;51.548;5.688;2023-07-13T15:36:42;1.27;;;1.00;;
73852;SDS011;62191;51.548;5.688;2023-07-13T15:39:14;1.45;;;1.10;;
73852;SDS011;62191;51.548;5.688;2023-07-13T15:41:45;1.67;;;1.15;;